Time;durP1;ratioP1;P1;durP2;ratioP2;P2;SDS_P1;SDS_P2;PMS_P1;PMS_P2;Temp;Humidity;BMP_temperature;BMP_pressure;BME280_temperature;BME280_humidity;BME280_pressure;Samples;Min_cycle;Max_cycle;Signal;HPM_P1;HPM_P2
2022/01/08 00:01:09;;;;;;;490.17;109.63;;;;;;;;;;5016336;28;20297;-66
2022/01/08 00:03:37;;;;;;;556.97;102.90;;;;;;;;;;5016272;28;20022;-67
2022/01/08 00:06:05;;;;;;;302.05;83.88;;;;;;;;;;5016204;28;20026;-66
2022/01/08 00:08:32;;;;;;;287.98;83.68;;;;;;;;;;5016260;28;20037;-66
2022/01/08 00:11:00;;;;;;;246.10;72.70;;;;;;;;;;5016191;28;20308;-66
2022/01/08 00:13:28;;;;;;;313.67;84.65;;;;;;;;;;5016134;28;20018;-66
2022/01/08 00:15:56;;;;;;;325.13;87.72;;;;;;;;;;5016202;28;20101;-66
2022/01/08 00:18:23;;;;;;;456.35;86.07;;;;;;;;;;5015972;28;20622;-66
2022/01/08 00:20:51;;;;;;;354.33;76.78;;;;;;;;;;5015068;28;20026;-65
2022/01/08 00:23:18;;;;;;;250.77;72.88;;;;;;;;;;5016110;28;20071;-66
2022/01/08 00:25:46;;;;;;;312.88;73.75;;;;;;;;;;5015603;28;20022;-66
2022/01/08 00:28:13;;;;;;;292.70;73.43;;;;;;;;;;5020087;28;20530;-66
2022/01/08 00:30:41;;;;;;;454.80;82.78;;;;;;;;;;5019924;28;20026;-66
2022/01/08 00:33:09;;;;;;;457.05;83.82;;;;;;;;;;5019970;28;20033;-66
2022/01/08 00:35:36;;;;;;;515.63;89.53;;;;;;;;;;5019954;28;20030;-66
2022/01/08 00:38:04;;;;;;;429.05;83.47;;;;;;;;;;5018595;28;20038;-67
2022/01/08 00:40:31;;;;;;;365.83;78.05;;;;;;;;;;5019780;28;20077;-67
2022/01/08 00:42:59;;;;;;;256.38;70.45;;;;;;;;;;5018682;28;20021;-66
2022/01/08 00:45:27;;;;;;;396.17;81.20;;;;;;;;;;5018603;28;20362;-66
2022/01/08 00:47:54;;;;;;;234.70;70.57;;;;;;;;;;5019552;28;20064;-66
2022/01/08 00:50:21;;;;;;;237.73;73.15;;;;;;;;;;5019508;28;20042;-66
2022/01/08 00:52:48;;;;;;;291.45;77.53;;;;;;;;;;5018598;28;20026;-66
2022/01/08 00:55:15;;;;;;;252.85;76.53;;;;;;;;;;5019581;28;20097;-66
2022/01/08 00:57:43;;;;;;;231.65;70.03;;;;;;;;;;5018259;28;20030;-67
2022/01/08 01:00:12;;;;;;;214.32;71.78;;;;;;;;;;5018318;28;20030;-66
2022/01/08 01:02:40;;;;;;;267.88;73.35;;;;;;;;;;5019365;28;20018;-67
2022/01/08 01:05:11;;;;;;;233.55;76.82;;;;;;;;;;5019378;28;20072;-67
2022/01/08 01:07:39;;;;;;;210.73;69.60;;;;;;;;;;5018182;28;20120;-66
2022/01/08 01:10:08;;;;;;;236.65;71.30;;;;;;;;;;5019315;28;20026;-66
2022/01/08 01:12:36;;;;;;;250.13;71.88;;;;;;;;;;5019219;28;20034;-66
2022/01/08 01:15:05;;;;;;;212.90;67.03;;;;;;;;;;5019238;28;20033;-66
2022/01/08 01:17:35;;;;;;;216.38;68.22;;;;;;;;;;5018976;28;20026;-66
2022/01/08 01:20:03;;;;;;;271.35;76.47;;;;;;;;;;5019145;28;20052;-65
2022/01/08 01:22:42;;;;;;;277.83;80.32;;;;;;;;;;5017929;28;20407;-66
2022/01/08 01:25:13;;;;;;;255.65;77.53;;;;;;;;;;5018936;28;20030;-66
2022/01/08 01:30:17;;;;;;;206.95;74.22;;;;;;;;;;5018998;28;20433;-67
2022/01/08 01:41:25;;;;;;;209.43;64.50;;;;;;;;;;5018994;28;20100;-66
2022/01/08 01:49:10;;;;;;;254.05;82.10;;;;;;;;;;5018894;28;20720;-66
2022/01/08 01:51:37;;;;;;;250.93;87.38;;;;;;;;;;5018415;28;20347;-66
2022/01/08 01:54:05;;;;;;;267.83;89.28;;;;;;;;;;5018514;28;20032;-66
2022/01/08 01:56:32;;;;;;;265.42;96.10;;;;;;;;;;5018275;28;20382;-66
2022/01/08 01:59:00;;;;;;;291.98;110.03;;;;;;;;;;5018292;28;20511;-66
2022/01/08 02:01:28;;;;;;;274.33;100.43;;;;;;;;;;5017136;28;20049;-66
2022/01/08 02:03:55;;;;;;;293.67;98.90;;;;;;;;;;5017151;28;20415;-66
2022/01/08 02:06:23;;;;;;;237.45;85.97;;;;;;;;;;5018177;28;20025;-66
2022/01/08 02:08:50;;;;;;;286.02;93.18;;;;;;;;;;5018196;28;20027;-66
2022/01/08 02:11:20;;;;;;;243.43;88.00;;;;;;;;;;5018158;28;20327;-67
2022/01/08 02:13:48;;;;;;;233.35;82.95;;;;;;;;;;5018051;28;20037;-66
2022/01/08 02:16:17;;;;;;;268.83;105.88;;;;;;;;;;5017979;28;20057;-66
2022/01/08 02:18:46;;;;;;;296.35;116.10;;;;;;;;;;5017896;28;20049;-66
2022/01/08 02:21:15;;;;;;;273.17;118.22;;;;;;;;;;5017896;28;20018;-66
2022/01/08 02:23:43;;;;;;;270.98;118.25;;;;;;;;;;5016758;28;20030;-66
2022/01/08 02:26:11;;;;;;;230.95;98.18;;;;;;;;;;5017815;28;20022;-66
2022/01/08 02:28:39;;;;;;;219.45;86.53;;;;;;;;;;5017791;28;20324;-65
2022/01/08 02:31:07;;;;;;;257.95;99.05;;;;;;;;;;5017685;28;20017;-66
2022/01/08 02:33:37;;;;;;;240.57;86.47;;;;;;;;;;5016634;28;20026;-66
2022/01/08 02:36:08;;;;;;;277.48;98.32;;;;;;;;;;5016604;28;20044;-66
2022/01/08 02:38:35;;;;;;;317.42;112.13;;;;;;;;;;5017748;28;20319;-66
2022/01/08 02:41:05;;;;;;;302.77;104.63;;;;;;;;;;5017643;28;20030;-66
2022/01/08 02:43:39;;;;;;;290.23;106.65;;;;;;;;;;5017549;28;20148;-66
2022/01/08 02:46:07;;;;;;;259.65;101.10;;;;;;;;;;5017391;28;20034;-66
2022/01/08 02:48:36;;;;;;;256.17;97.65;;;;;;;;;;5016900;28;20029;-66
2022/01/08 02:51:02;;;;;;;259.38;97.20;;;;;;;;;;5016225;28;20057;-66
2022/01/08 02:53:30;;;;;;;255.70;98.25;;;;;;;;;;5016259;28;20037;-66
2022/01/08 02:55:57;;;;;;;236.50;99.28;;;;;;;;;;5017359;28;20427;-66
2022/01/08 02:58:28;;;;;;;300.42;129.43;;;;;;;;;;5017160;28;20419;-66
2022/01/08 03:00:56;;;;;;;285.15;126.43;;;;;;;;;;5017228;28;20022;-66
2022/01/08 03:03:24;;;;;;;233.43;95.45;;;;;;;;;;5017266;28;20022;-66
2022/01/08 03:05:52;;;;;;;226.52;94.50;;;;;;;;;;5016210;28;20358;-66
2022/01/08 03:08:19;;;;;;;198.80;80.28;;;;;;;;;;5017185;28;20076;-67
2022/01/08 03:10:46;;;;;;;196.45;77.47;;;;;;;;;;5017135;28;20033;-66
2022/01/08 03:13:14;;;;;;;188.75;75.65;;;;;;;;;;5015988;28;20034;-66
2022/01/08 03:15:42;;;;;;;195.63;76.72;;;;;;;;;;5016931;28;20044;-67
2022/01/08 03:18:09;;;;;;;283.15;126.90;;;;;;;;;;5016966;28;20053;-67
2022/01/08 03:20:46;;;;;;;247.18;109.05;;;;;;;;;;5017054;28;20021;-66
2022/01/08 03:23:16;;;;;;;213.10;95.10;;;;;;;;;;5016920;28;20028;-66
2022/01/08 03:25:45;;;;;;;173.07;67.60;;;;;;;;;;5016809;28;20033;-67
2022/01/08 03:28:12;;;;;;;146.52;55.45;;;;;;;;;;5016670;28;20415;-66
2022/01/08 03:30:40;;;;;;;136.60;53.88;;;;;;;;;;5016508;28;20105;-66
2022/01/08 03:33:08;;;;;;;121.80;48.70;;;;;;;;;;5016545;28;20021;-67
2022/01/08 03:35:36;;;;;;;110.82;43.72;;;;;;;;;;5016270;28;20065;-67
2022/01/08 03:38:03;;;;;;;108.63;43.63;;;;;;;;;;5016205;28;20057;-67
2022/01/08 03:40:30;;;;;;;111.20;44.20;;;;;;;;;;5016168;28;20026;-67
2022/01/08 03:43:01;;;;;;;107.40;42.60;;;;;;;;;;5015083;28;20045;-67
2022/01/08 03:45:29;;;;;;;128.65;53.90;;;;;;;;;;5016260;28;20449;-67
2022/01/08 03:50:42;;;;;;;127.05;49.70;;;;;;;;;;5016132;28;20531;-66
2022/01/08 03:53:09;;;;;;;137.07;52.85;;;;;;;;;;5016177;28;20115;-67
2022/01/08 03:55:37;;;;;;;126.25;51.47;;;;;;;;;;5016191;28;20327;-67
2022/01/08 03:58:06;;;;;;;126.40;53.47;;;;;;;;;;5016011;28;20080;-67
2022/01/08 04:00:33;;;;;;;121.35;52.85;;;;;;;;;;5016194;28;20054;-67
2022/01/08 04:03:01;;;;;;;134.82;57.38;;;;;;;;;;5016256;28;20022;-67
2022/01/08 04:05:29;;;;;;;163.88;75.78;;;;;;;;;;5016150;28;20026;-67
2022/01/08 04:07:56;;;;;;;136.88;58.22;;;;;;;;;;5016192;28;20105;-66
2022/01/08 04:10:24;;;;;;;129.70;57.03;;;;;;;;;;5015009;28;20112;-67
2022/01/08 04:12:56;;;;;;;108.70;43.63;;;;;;;;;;5016123;28;20339;-66
2022/01/08 04:17:55;;;;;;;148.02;52.20;;;;;;;;;;5015887;28;20081;-66
2022/01/08 04:20:23;;;;;;;119.55;43.08;;;;;;;;;;5014874;28;20416;-66
2022/01/08 04:22:51;;;;;;;101.50;42.05;;;;;;;;;;5016078;28;20097;-66
2022/01/08 04:25:20;;;;;;;131.88;49.78;;;;;;;;;;5015043;28;20026;-67
2022/01/08 04:27:48;;;;;;;127.07;46.97;;;;;;;;;;5014992;28;20030;-67
2022/01/08 04:30:15;;;;;;;113.80;42.35;;;;;;;;;;5016158;28;20419;-67
2022/01/08 04:32:43;;;;;;;130.32;46.63;;;;;;;;;;5014873;28;20026;-67
2022/01/08 04:35:10;;;;;;;116.25;44.47;;;;;;;;;;5016061;28;20060;-67
2022/01/08 04:37:38;;;;;;;130.43;49.17;;;;;;;;;;5015883;28;20030;-67
2022/01/08 04:40:06;;;;;;;106.55;40.70;;;;;;;;;;5015957;28;20030;-67
2022/01/08 04:42:34;;;;;;;124.47;46.45;;;;;;;;;;5015792;28;20125;-67
2022/01/08 04:45:02;;;;;;;126.80;44.67;;;;;;;;;;5015732;28;20026;-67
2022/01/08 04:47:29;;;;;;;147.82;49.70;;;;;;;;;;5014711;28;20022;-67
2022/01/08 04:49:56;;;;;;;137.50;53.58;;;;;;;;;;5015697;28;20042;-67
2022/01/08 04:52:24;;;;;;;130.40;47.80;;;;;;;;;;5015679;28;20029;-67
2022/01/08 04:54:52;;;;;;;145.43;54.80;;;;;;;;;;5014340;28;20058;-67
2022/01/08 04:57:19;;;;;;;128.68;51.50;;;;;;;;;;5015192;28;20044;-67
2022/01/08 04:59:47;;;;;;;144.80;53.70;;;;;;;;;;5014507;28;20025;-67
2022/01/08 05:02:14;;;;;;;121.93;51.92;;;;;;;;;;5015629;28;20053;-68
2022/01/08 05:04:43;;;;;;;131.55;52.20;;;;;;;;;;5014441;28;20026;-67
2022/01/08 05:07:11;;;;;;;115.55;45.92;;;;;;;;;;5014346;28;20026;-66
2022/01/08 05:09:38;;;;;;;115.32;46.67;;;;;;;;;;5015472;28;20030;-67
2022/01/08 05:12:06;;;;;;;116.05;47.38;;;;;;;;;;5017629;28;20506;-67
2022/01/08 05:14:34;;;;;;;122.13;50.45;;;;;;;;;;5018655;28;20105;-68
2022/01/08 05:17:02;;;;;;;120.55;50.83;;;;;;;;;;5018938;28;20022;-67
2022/01/08 05:22:09;;;;;;;127.88;54.70;;;;;;;;;;5018960;28;20018;-69
2022/01/08 05:24:36;;;;;;;120.85;48.17;;;;;;;;;;5017890;28;20033;-68
2022/01/08 05:27:06;;;;;;;117.60;49.97;;;;;;;;;;5017695;28;20033;-68
2022/01/08 05:29:33;;;;;;;130.25;52.92;;;;;;;;;;5018816;28;20370;-68
2022/01/08 05:32:00;;;;;;;135.55;53.95;;;;;;;;;;5018855;28;20048;-67
2022/01/08 05:34:28;;;;;;;136.00;56.60;;;;;;;;;;5018667;28;20109;-68
2022/01/08 05:36:55;;;;;;;138.68;56.25;;;;;;;;;;5017702;28;20071;-67
2022/01/08 05:39:23;;;;;;;151.23;57.17;;;;;;;;;;5019007;28;20037;-68
2022/01/08 05:41:50;;;;;;;127.85;52.15;;;;;;;;;;5017560;28;20374;-68
2022/01/08 05:44:18;;;;;;;128.98;51.35;;;;;;;;;;5018591;28;20053;-68
2022/01/08 05:46:47;;;;;;;122.53;49.03;;;;;;;;;;5018650;28;20029;-68
2022/01/08 05:49:15;;;;;;;129.57;50.22;;;;;;;;;;5018637;28;20109;-67
2022/01/08 05:51:43;;;;;;;142.57;63.70;;;;;;;;;;5018496;28;20045;-67
2022/01/08 05:54:10;;;;;;;106.57;43.88;;;;;;;;;;5017362;28;20029;-67
2022/01/08 05:56:38;;;;;;;120.88;49.30;;;;;;;;;;5018522;28;20418;-67
2022/01/08 05:59:05;;;;;;;121.55;50.78;;;;;;;;;;5018392;28;20087;-67
2022/01/08 06:01:36;;;;;;;133.57;57.15;;;;;;;;;;5017267;28;20414;-67
2022/01/08 06:04:07;;;;;;;130.05;51.83;;;;;;;;;;5018235;28;20097;-68
2022/01/08 06:06:35;;;;;;;127.40;48.65;;;;;;;;;;5017217;28;20033;-68
2022/01/08 06:09:03;;;;;;;124.07;51.33;;;;;;;;;;5017107;28;20089;-69
2022/01/08 06:11:31;;;;;;;136.32;54.72;;;;;;;;;;5016958;28;20040;-66
2022/01/08 06:13:59;;;;;;;144.23;58.22;;;;;;;;;;5016831;28;20419;-67
2022/01/08 06:16:32;;;;;;;166.93;68.32;;;;;;;;;;5016872;28;20040;-67
2022/01/08 06:19:01;;;;;;;101.15;44.10;;;;;;;;;;5017944;28;20026;-67
2022/01/08 06:21:29;;;;;;;100.05;42.85;;;;;;;;;;5017913;28;20022;-67
2022/01/08 06:23:56;;;;;;;101.05;42.63;;;;;;;;;;5016634;28;20099;-68
2022/01/08 06:26:24;;;;;;;113.82;50.63;;;;;;;;;;5017508;28;20026;-67
2022/01/08 06:28:51;;;;;;;103.13;44.20;;;;;;;;;;5017739;28;20036;-67
2022/01/08 06:31:23;;;;;;;108.00;42.33;;;;;;;;;;5017857;28;20081;-68
2022/01/08 06:33:51;;;;;;;100.10;41.55;;;;;;;;;;4960482;28;20121;-67
2022/01/08 06:36:19;;;;;;;101.55;44.55;;;;;;;;;;4976633;28;20039;-67
2022/01/08 06:38:50;;;;;;;93.07;40.28;;;;;;;;;;4976517;28;20436;-67
2022/01/08 06:41:18;;;;;;;82.72;37.85;;;;;;;;;;4960388;28;20030;-68
2022/01/08 06:43:45;;;;;;;90.82;40.35;;;;;;;;;;4976823;28;20055;-68
2022/01/08 06:46:13;;;;;;;90.95;40.92;;;;;;;;;;4960459;28;20030;-66
2022/01/08 06:48:41;;;;;;;95.28;40.63;;;;;;;;;;4976869;28;20085;-67
2022/01/08 06:51:08;;;;;;;102.32;42.70;;;;;;;;;;4960266;28;20043;-68
2022/01/08 06:53:34;;;;;;;103.85;43.00;;;;;;;;;;4976639;28;20099;-67
2022/01/08 06:56:01;;;;;;;125.38;44.42;;;;;;;;;;4960050;28;20444;-68
2022/01/08 06:58:29;;;;;;;158.55;53.88;;;;;;;;;;4976151;28;20074;-68
2022/01/08 07:00:57;;;;;;;150.32;52.97;;;;;;;;;;4960086;28;20181;-68
2022/01/08 07:03:24;;;;;;;164.07;57.72;;;;;;;;;;4975783;28;20031;-68
2022/01/08 07:05:52;;;;;;;187.43;54.33;;;;;;;;;;4959799;28;20077;-69
2022/01/08 07:08:19;;;;;;;179.10;58.55;;;;;;;;;;4959788;28;20026;-67
2022/01/08 07:10:47;;;;;;;175.27;58.38;;;;;;;;;;4976235;28;20030;-68
2022/01/08 07:13:15;;;;;;;159.90;53.90;;;;;;;;;;4975923;28;20106;-68
2022/01/08 07:15:42;;;;;;;159.95;56.17;;;;;;;;;;4975801;28;20043;-68
2022/01/08 07:18:10;;;;;;;120.60;46.42;;;;;;;;;;4975500;28;20034;-68
2022/01/08 07:20:38;;;;;;;105.88;44.53;;;;;;;;;;4975771;28;20023;-68
2022/01/08 07:23:06;;;;;;;108.80;49.00;;;;;;;;;;4963199;28;20428;-68
2022/01/08 07:25:33;;;;;;;134.88;56.08;;;;;;;;;;5016697;28;20026;-68
2022/01/08 07:28:00;;;;;;;129.85;56.13;;;;;;;;;;5016746;28;20056;-69
2022/01/08 07:30:28;;;;;;;103.82;48.72;;;;;;;;;;5016523;28;20049;-68
2022/01/08 07:32:55;;;;;;;119.80;51.35;;;;;;;;;;5015296;28;20056;-68
2022/01/08 07:35:23;;;;;;;113.38;48.65;;;;;;;;;;5016137;28;20029;-67
2022/01/08 07:37:52;;;;;;;126.40;51.03;;;;;;;;;;5015215;28;20327;-67
2022/01/08 07:40:20;;;;;;;143.52;50.25;;;;;;;;;;5015241;28;20141;-67
2022/01/08 07:42:47;;;;;;;139.35;51.60;;;;;;;;;;5016532;28;20018;-67
2022/01/08 07:45:16;;;;;;;113.82;45.65;;;;;;;;;;5015099;28;20037;-67
2022/01/08 07:47:44;;;;;;;125.72;48.80;;;;;;;;;;5016408;28;20046;-68
2022/01/08 07:50:10;;;;;;;140.18;52.80;;;;;;;;;;5016252;28;20072;-68
2022/01/08 07:52:37;;;;;;;141.75;50.30;;;;;;;;;;5014209;28;20485;-68
2022/01/08 07:55:05;;;;;;;135.38;52.53;;;;;;;;;;4997848;28;20131;-66
2022/01/08 07:57:32;;;;;;;141.68;50.95;;;;;;;;;;5014248;28;20034;-68
2022/01/08 07:59:59;;;;;;;130.13;51.10;;;;;;;;;;5014216;28;20021;-68
2022/01/08 08:02:27;;;;;;;127.28;51.60;;;;;;;;;;5014273;28;20130;-68
2022/01/08 08:04:55;;;;;;;157.85;58.53;;;;;;;;;;4997648;28;20024;-68
2022/01/08 08:07:29;;;;;;;147.30;59.78;;;;;;;;;;5014121;28;20060;-69
2022/01/08 08:09:57;;;;;;;130.15;51.40;;;;;;;;;;5013918;28;20033;-69
2022/01/08 08:12:25;;;;;;;152.48;56.85;;;;;;;;;;5014054;28;20038;-69
2022/01/08 08:14:53;;;;;;;144.82;55.45;;;;;;;;;;5013912;28;20026;-68
2022/01/08 08:17:20;;;;;;;152.18;57.38;;;;;;;;;;5014327;28;20520;-69
2022/01/08 08:19:48;;;;;;;144.38;55.45;;;;;;;;;;5014324;28;20403;-68
2022/01/08 08:22:16;;;;;;;143.85;55.00;;;;;;;;;;4997779;28;20026;-69
2022/01/08 08:24:44;;;;;;;136.48;55.13;;;;;;;;;;5015696;28;20112;-69
2022/01/08 08:27:11;;;;;;;134.10;56.88;;;;;;;;;;5014838;28;20112;-68
2022/01/08 08:29:40;;;;;;;142.13;59.28;;;;;;;;;;5015353;28;20022;-69
2022/01/08 08:32:09;;;;;;;131.50;56.28;;;;;;;;;;5016341;28;20030;-68
2022/01/08 08:34:36;;;;;;;156.10;62.80;;;;;;;;;;5015911;28;20422;-70
2022/01/08 08:37:04;;;;;;;154.95;61.75;;;;;;;;;;5015020;28;20441;-69
2022/01/08 08:39:32;;;;;;;150.73;59.35;;;;;;;;;;5015723;28;20038;-69
2022/01/08 08:41:59;;;;;;;143.88;55.55;;;;;;;;;;5015957;28;20030;-69
2022/01/08 08:44:27;;;;;;;154.75;60.00;;;;;;;;;;5014852;28;20026;-68
2022/01/08 08:46:55;;;;;;;149.32;58.50;;;;;;;;;;5015606;28;20022;-70
2022/01/08 08:49:21;;;;;;;137.20;55.22;;;;;;;;;;5019267;28;20049;-69
2022/01/08 08:51:49;;;;;;;139.68;56.97;;;;;;;;;;5018708;28;20083;-70
2022/01/08 08:54:17;;;;;;;149.77;63.67;;;;;;;;;;5018421;28;20033;-70
2022/01/08 08:56:44;;;;;;;137.57;57.90;;;;;;;;;;5019407;28;20033;-70
2022/01/08 08:59:12;;;;;;;139.18;54.88;;;;;;;;;;5019372;28;20057;-70
2022/01/08 09:01:41;;;;;;;149.75;58.45;;;;;;;;;;5018368;28;20026;-70
2022/01/08 09:04:09;;;;;;;148.02;61.28;;;;;;;;;;5019455;28;20060;-70
2022/01/08 09:06:36;;;;;;;162.43;59.85;;;;;;;;;;5018102;28;20021;-69
2022/01/08 09:09:04;;;;;;;163.73;64.38;;;;;;;;;;5019139;28;20030;-69
2022/01/08 09:11:32;;;;;;;161.95;66.18;;;;;;;;;;5018146;28;20060;-70
2022/01/08 09:13:59;;;;;;;156.48;63.05;;;;;;;;;;5019232;28;20034;-70
2022/01/08 09:16:27;;;;;;;171.30;66.20;;;;;;;;;;5018071;28;20026;-71
2022/01/08 09:18:55;;;;;;;161.50;63.97;;;;;;;;;;5017933;28;20030;-69
2022/01/08 09:21:27;;;;;;;161.73;63.33;;;;;;;;;;5018922;28;20060;-70
2022/01/08 09:23:55;;;;;;;161.93;66.20;;;;;;;;;;5019199;28;20018;-71
2022/01/08 09:26:22;;;;;;;183.70;72.45;;;;;;;;;;5017792;28;20025;-70
2022/01/08 09:28:50;;;;;;;166.27;62.60;;;;;;;;;;5018868;28;20030;-69
2022/01/08 09:31:18;;;;;;;168.35;66.50;;;;;;;;;;5019007;28;20021;-69
2022/01/08 09:33:46;;;;;;;181.60;68.78;;;;;;;;;;5018987;28;20445;-69
2022/01/08 09:36:13;;;;;;;175.98;66.50;;;;;;;;;;5018931;28;20026;-69
2022/01/08 09:38:41;;;;;;;179.65;67.28;;;;;;;;;;5018954;28;20473;-70
2022/01/08 09:41:08;;;;;;;196.75;79.15;;;;;;;;;;5018820;28;20030;-70
2022/01/08 09:43:37;;;;;;;188.00;73.15;;;;;;;;;;5018740;28;20032;-70
2022/01/08 09:46:05;;;;;;;158.00;63.13;;;;;;;;;;5018816;28;20045;-70
2022/01/08 09:48:32;;;;;;;171.98;64.13;;;;;;;;;;5018573;28;20030;-70
2022/01/08 09:50:59;;;;;;;173.02;67.68;;;;;;;;;;5018450;28;20042;-70
2022/01/08 09:53:25;;;;;;;201.90;73.93;;;;;;;;;;5018383;28;20034;-70
2022/01/08 09:55:52;;;;;;;217.93;75.97;;;;;;;;;;5018416;28;20025;-70
2022/01/08 09:58:20;;;;;;;189.63;68.05;;;;;;;;;;5018341;28;20036;-70
2022/01/08 10:00:48;;;;;;;222.45;79.07;;;;;;;;;;5018432;28;20022;-69
2022/01/08 10:03:19;;;;;;;219.90;80.30;;;;;;;;;;5018344;28;20026;-69
2022/01/08 10:05:48;;;;;;;251.20;102.07;;;;;;;;;;5017095;28;20022;-69
2022/01/08 10:08:21;;;;;;;193.35;76.30;;;;;;;;;;5017976;28;20033;-68
2022/01/08 10:11:09;;;;;;;233.52;93.10;;;;;;;;;;5017971;28;20026;-68
2022/01/08 10:13:42;;;;;;;231.75;85.25;;;;;;;;;;5017888;28;20037;-67
2022/01/08 10:19:04;;;;;;;222.35;85.70;;;;;;;;;;5017890;28;20073;-67
2022/01/08 10:21:36;;;;;;;195.68;70.90;;;;;;;;;;5017741;28;20029;-68
2022/01/08 10:24:08;;;;;;;199.85;79.63;;;;;;;;;;5017810;28;20068;-68
2022/01/08 10:26:40;;;;;;;205.95;84.13;;;;;;;;;;5017875;28;20378;-69
2022/01/08 10:29:17;;;;;;;197.95;81.03;;;;;;;;;;5016662;28;20108;-68
2022/01/08 10:31:50;;;;;;;202.70;78.78;;;;;;;;;;5017790;28;20033;-68
2022/01/08 10:34:25;;;;;;;222.77;84.93;;;;;;;;;;5016346;28;20080;-68
2022/01/08 10:37:00;;;;;;;195.90;78.20;;;;;;;;;;5017676;28;20037;-68
2022/01/08 10:39:34;;;;;;;200.50;82.70;;;;;;;;;;5016319;28;20041;-68
2022/01/08 10:42:08;;;;;;;229.18;93.22;;;;;;;;;;5017559;28;20026;-68
2022/01/08 10:44:36;;;;;;;247.40;104.05;;;;;;;;;;5017566;28;20416;-68
2022/01/08 10:47:28;;;;;;;239.85;110.93;;;;;;;;;;5017455;28;20427;-66
2022/01/08 10:50:05;;;;;;;293.02;127.85;;;;;;;;;;5014610;28;20046;-68
2022/01/08 10:52:44;;;;;;;336.17;138.52;;;;;;;;;;5017158;28;20104;-67
2022/01/08 10:55:11;;;;;;;311.40;132.60;;;;;;;;;;5017220;28;20021;-66
2022/01/08 10:57:40;;;;;;;298.75;125.15;;;;;;;;;;5017035;28;20088;-67
2022/01/08 11:00:09;;;;;;;279.58;122.32;;;;;;;;;;5016038;28;20076;-68
2022/01/08 11:02:38;;;;;;;277.88;122.50;;;;;;;;;;5017215;28;20406;-68
2022/01/08 11:05:07;;;;;;;255.73;103.22;;;;;;;;;;5016117;28;20034;-69
2022/01/08 11:07:39;;;;;;;232.00;98.22;;;;;;;;;;5017145;28;20406;-68
2022/01/08 11:10:11;;;;;;;219.63;92.07;;;;;;;;;;5016581;28;20033;-68
2022/01/08 11:12:42;;;;;;;223.07;90.22;;;;;;;;;;5017043;28;20081;-69
2022/01/08 11:17:40;;;;;;;219.95;97.35;;;;;;;;;;5016902;28;20315;-69
2022/01/08 11:20:16;;;;;;;216.90;96.43;;;;;;;;;;5015745;28;20109;-68
2022/01/08 11:22:46;;;;;;;238.85;100.38;;;;;;;;;;5016765;28;20029;-69
2022/01/08 11:25:17;;;;;;;223.00;96.75;;;;;;;;;;5016806;28;20026;-69
2022/01/08 11:27:55;;;;;;;245.93;107.53;;;;;;;;;;5016810;28;20050;-69
2022/01/08 11:30:25;;;;;;;230.25;98.35;;;;;;;;;;5015560;28;20419;-68
2022/01/08 11:32:56;;;;;;;227.38;90.20;;;;;;;;;;5016597;28;20026;-69
2022/01/08 11:35:25;;;;;;;232.25;92.53;;;;;;;;;;5016632;28;20014;-69
2022/01/08 11:37:55;;;;;;;231.57;96.47;;;;;;;;;;5016364;28;20037;-69
2022/01/08 11:40:26;;;;;;;233.15;96.72;;;;;;;;;;5016499;28;20025;-69
2022/01/08 11:42:54;;;;;;;266.98;113.38;;;;;;;;;;5016559;28;20108;-68
2022/01/08 11:45:25;;;;;;;281.20;133.82;;;;;;;;;;5015210;28;20057;-68
2022/01/08 11:47:54;;;;;;;350.73;144.45;;;;;;;;;;5015251;28;20128;-68
2022/01/08 11:50:25;;;;;;;282.83;114.25;;;;;;;;;;5016144;28;20084;-69
2022/01/08 11:53:12;;;;;;;279.92;111.07;;;;;;;;;;5016432;28;20022;-69
2022/01/08 11:55:40;;;;;;;285.02;114.80;;;;;;;;;;4956100;29;20151;-69
2022/01/08 11:58:26;;;;;;;294.52;117.50;;;;;;;;;;4955991;29;20039;-69
2022/01/08 12:00:58;;;;;;;323.60;121.85;;;;;;;;;;4940055;29;20044;-69
2022/01/08 12:03:40;;;;;;;293.80;113.85;;;;;;;;;;4956099;29;20035;-69
2022/01/08 12:06:40;;;;;;;284.02;113.32;;;;;;;;;;4955915;29;20039;-69
2022/01/08 12:09:21;;;;;;;305.80;119.93;;;;;;;;;;4901678;29;20043;-68
2022/01/08 12:11:54;;;;;;;428.45;196.77;;;;;;;;;;4917805;29;20036;-68
2022/01/08 12:14:25;;;;;;;357.77;137.88;;;;;;;;;;4917712;29;20074;-68
2022/01/08 12:16:54;;;;;;;286.02;118.82;;;;;;;;;;4917654;29;20032;-68
2022/01/08 12:19:40;;;;;;;292.05;127.03;;;;;;;;;;4917386;29;20381;-67
2022/01/08 12:22:24;;;;;;;287.25;119.78;;;;;;;;;;4918707;29;20024;-68
2022/01/08 12:25:02;;;;;;;277.80;119.78;;;;;;;;;;4921501;29;20465;-69
2022/01/08 12:27:34;;;;;;;297.05;116.72;;;;;;;;;;4921442;29;20166;-68
2022/01/08 12:30:21;;;;;;;307.15;124.80;;;;;;;;;;4921334;29;20029;-69
2022/01/08 12:32:51;;;;;;;298.08;127.43;;;;;;;;;;4941189;29;20031;-69
2022/01/08 12:35:23;;;;;;;314.70;120.78;;;;;;;;;;4959537;29;20019;-70
2022/01/08 12:37:55;;;;;;;343.23;136.68;;;;;;;;;;4959282;29;20066;-69
2022/01/08 12:40:40;;;;;;;306.70;123.80;;;;;;;;;;4943416;29;20023;-68
2022/01/08 12:43:25;;;;;;;325.23;132.95;;;;;;;;;;4959373;29;20019;-69
2022/01/08 12:45:53;;;;;;;340.95;138.57;;;;;;;;;;5018733;28;20061;-69
2022/01/08 12:48:21;;;;;;;321.35;127.00;;;;;;;;;;5019626;28;20037;-69
2022/01/08 12:50:48;;;;;;;301.67;124.35;;;;;;;;;;5019414;28;20048;-68
2022/01/08 12:53:20;;;;;;;318.13;125.30;;;;;;;;;;5019580;28;20029;-68
2022/01/08 12:56:00;;;;;;;305.27;127.05;;;;;;;;;;5019377;28;20076;-69
2022/01/08 12:58:29;;;;;;;310.17;131.10;;;;;;;;;;5019450;28;20029;-68
2022/01/08 13:01:11;;;;;;;317.35;135.02;;;;;;;;;;5019475;28;20370;-68
2022/01/08 13:03:42;;;;;;;318.65;130.07;;;;;;;;;;5019362;28;20053;-68
2022/01/08 13:06:18;;;;;;;304.75;128.30;;;;;;;;;;5019138;28;20080;-67
2022/01/08 13:08:49;;;;;;;269.58;110.82;;;;;;;;;;5019216;28;20099;-67
2022/01/08 13:11:21;;;;;;;265.42;114.40;;;;;;;;;;5019132;28;20314;-68
2022/01/08 13:14:09;;;;;;;267.42;110.90;;;;;;;;;;5018044;28;20030;-68
2022/01/08 13:16:41;;;;;;;246.73;98.40;;;;;;;;;;5018940;28;20048;-67
2022/01/08 13:19:14;;;;;;;241.15;100.95;;;;;;;;;;5018870;28;20304;-67
2022/01/08 13:21:51;;;;;;;266.30;107.78;;;;;;;;;;5018895;28;20093;-67
2022/01/08 13:24:24;;;;;;;253.15;101.75;;;;;;;;;;5018961;28;20096;-67
2022/01/08 13:27:01;;;;;;;306.17;123.72;;;;;;;;;;5017786;28;20081;-67
2022/01/08 13:29:39;;;;;;;270.38;111.03;;;;;;;;;;5017679;28;20050;-68
2022/01/08 13:32:17;;;;;;;300.92;118.07;;;;;;;;;;5017565;28;20117;-67
2022/01/08 13:34:58;;;;;;;275.88;113.78;;;;;;;;;;5018499;28;20030;-68
2022/01/08 13:37:28;;;;;;;300.08;121.38;;;;;;;;;;5017516;28;20022;-68
2022/01/08 13:39:57;;;;;;;353.08;153.23;;;;;;;;;;5018592;28;20487;-68
2022/01/08 13:42:30;;;;;;;296.38;125.15;;;;;;;;;;5018552;28;20026;-67
2022/01/08 13:44:59;;;;;;;255.20;105.50;;;;;;;;;;5017366;28;20026;-67
2022/01/08 13:47:38;;;;;;;275.02;111.53;;;;;;;;;;5018489;28;20445;-65
2022/01/08 13:50:07;;;;;;;295.65;125.28;;;;;;;;;;5018292;28;20084;-67
2022/01/08 13:52:46;;;;;;;285.30;115.63;;;;;;;;;;5018307;28;20080;-67
2022/01/08 13:55:23;;;;;;;320.77;134.35;;;;;;;;;;5018246;28;20014;-68
2022/01/08 13:57:53;;;;;;;278.90;118.93;;;;;;;;;;5018290;28;20092;-68
2022/01/08 14:00:25;;;;;;;297.35;127.82;;;;;;;;;;5018243;28;20427;-68
2022/01/08 14:02:53;;;;;;;250.85;105.43;;;;;;;;;;5018306;28;20382;-68
2022/01/08 14:05:22;;;;;;;240.80;99.40;;;;;;;;;;5018207;28;20018;-69
2022/01/08 14:07:50;;;;;;;244.00;102.20;;;;;;;;;;5017122;28;20033;-68
2022/01/08 14:10:18;;;;;;;252.50;104.88;;;;;;;;;;5018163;28;20026;-67
2022/01/08 14:13:02;;;;;;;270.30;113.32;;;;;;;;;;5018119;28;20028;-68
2022/01/08 14:15:30;;;;;;;251.13;100.15;;;;;;;;;;5018035;28;20043;-68
2022/01/08 14:18:07;;;;;;;211.30;86.85;;;;;;;;;;5017913;28;20101;-67
2022/01/08 14:20:34;;;;;;;222.52;89.70;;;;;;;;;;5017788;28;20068;-68
2022/01/08 14:23:20;;;;;;;283.02;109.95;;;;;;;;;;5017825;28;20098;-68
2022/01/08 14:25:49;;;;;;;242.70;98.65;;;;;;;;;;5017614;28;20101;-68
2022/01/08 14:28:23;;;;;;;257.42;103.03;;;;;;;;;;5016613;28;20030;-67
2022/01/08 14:30:51;;;;;;;255.65;109.03;;;;;;;;;;5017545;28;20049;-69
2022/01/08 14:33:19;;;;;;;260.52;107.05;;;;;;;;;;5017636;28;20081;-69
2022/01/08 14:35:47;;;;;;;270.73;109.22;;;;;;;;;;5017717;28;20034;-67
2022/01/08 14:38:15;;;;;;;268.35;107.32;;;;;;;;;;5017352;28;20050;-69
2022/01/08 14:40:46;;;;;;;249.20;98.43;;;;;;;;;;5016237;28;20506;-68
2022/01/08 14:43:14;;;;;;;255.98;104.35;;;;;;;;;;5016199;28;20300;-68
2022/01/08 14:45:47;;;;;;;259.65;101.75;;;;;;;;;;5016508;28;20105;-68